Time;durP1;ratioP1;P1;durP2;ratioP2;P2;SDS_P1;SDS_P2;PMS_P1;PMS_P2;Temp;Humidity;BMP_temperature;BMP_pressure;BME280_temperature;BME280_humidity;BME280_pressure;Samples;Min_cycle;Max_cycle;Signal;HPM_P1;HPM_P2
2022/10/28 00:02:15;;;;;;;;;;;19.20;99.90;;;;;;5058051;28;19924;-81
2022/10/28 00:04:44;;;;;;;;;;;19.20;99.90;;;;;;5057177;28;19935;-82
2022/10/28 00:07:11;;;;;;;;;;;19.20;99.90;;;;;;5054455;28;19935;-80
2022/10/28 00:09:38;;;;;;;;;;;19.20;99.90;;;;;;5072646;28;19925;-81
2022/10/28 00:12:05;;;;;;;;;;;19.20;99.90;;;;;;5060180;28;20011;-80
2022/10/28 00:14:32;;;;;;;;;;;19.20;99.90;;;;;;5052081;28;19925;-79
2022/10/28 00:16:59;;;;;;;;;;;19.20;99.90;;;;;;5052183;28;19932;-79
2022/10/28 00:19:26;;;;;;;;;;;19.20;99.90;;;;;;5052350;28;19963;-80
2022/10/28 00:21:55;;;;;;;;;;;19.20;99.90;;;;;;5053667;28;19948;-80
2022/10/28 00:24:22;;;;;;;;;;;19.20;99.90;;;;;;5054755;28;19936;-80
2022/10/28 00:26:49;;;;;;;;;;;19.30;99.90;;;;;;5049028;28;19936;-79
2022/10/28 00:29:17;;;;;;;;;;;19.30;99.90;;;;;;5052009;28;20028;-79
2022/10/28 00:31:46;;;;;;;;;;;19.20;99.90;;;;;;5053302;28;20295;-79
2022/10/28 00:34:14;;;;;;;;;;;19.20;99.90;;;;;;5052605;28;19929;-80
2022/10/28 00:36:42;;;;;;;;;;;19.20;99.90;;;;;;5052727;28;19928;-80
2022/10/28 00:39:12;;;;;;;;;;;19.20;99.90;;;;;;5053731;28;20337;-80
2022/10/28 00:41:40;;;;;;;;;;;19.20;99.90;;;;;;5052700;28;19928;-80
2022/10/28 00:44:21;;;;;;;;;;;19.20;99.90;;;;;;5048645;28;19925;-80
2022/10/28 00:46:52;;;;;;;;;;;19.20;99.90;;;;;;5052943;28;20400;-80
2022/10/28 00:49:21;;;;;;;;;;;19.20;99.90;;;;;;5054655;28;20373;-80
2022/10/28 00:51:51;;;;;;;;;;;19.20;99.90;;;;;;5052963;28;19974;-80
2022/10/28 00:54:19;;;;;;;;;;;19.20;99.90;;;;;;5055394;28;20350;-80
2022/10/28 00:56:49;;;;;;;;;;;19.30;99.90;;;;;;5053460;28;20399;-79
2022/10/28 00:59:20;;;;;;;;;;;19.30;99.90;;;;;;5034668;28;21877;-80
2022/10/28 01:01:46;;;;;;;;;;;19.30;99.90;;;;;;5054448;28;19925;-80
2022/10/28 01:04:14;;;;;;;;;;;19.30;99.90;;;;;;5056170;28;19988;-81
2022/10/28 01:06:41;;;;;;;;;;;19.30;99.90;;;;;;5058286;28;19929;-82
2022/10/28 01:09:08;;;;;;;;;;;19.30;99.90;;;;;;5057428;28;19962;-81
2022/10/28 01:11:51;;;;;;;;;;;19.30;99.90;;;;;;5058719;28;19920;-81
2022/10/28 01:14:20;;;;;;;;;;;19.30;99.90;;;;;;5060696;28;19929;-80
2022/10/28 01:17:05;;;;;;;;;;;19.30;99.90;;;;;;5058246;28;19925;-81
2022/10/28 01:19:44;;;;;;;;;;;19.30;99.90;;;;;;5053649;28;19932;-80
2022/10/28 01:22:16;;;;;;;;;;;19.30;99.90;;;;;;5052457;28;20435;-81
2022/10/28 01:24:53;;;;;;;;;;;19.30;99.90;;;;;;5061372;28;19925;-82
2022/10/28 01:27:38;;;;;;;;;;;19.30;99.90;;;;;;5069665;28;19929;-83
2022/10/28 01:30:11;;;;;;;;;;;19.30;99.90;;;;;;5059856;28;20304;-82
2022/10/28 01:32:50;;;;;;;;;;;19.30;99.90;;;;;;5059967;28;20010;-80
2022/10/28 01:35:21;;;;;;;;;;;19.30;99.90;;;;;;5049274;28;20383;-77
2022/10/28 01:37:53;;;;;;;;;;;19.30;99.90;;;;;;5048580;28;19933;-77
2022/10/28 01:40:22;;;;;;;;;;;19.30;99.90;;;;;;5043793;28;19925;-79
2022/10/28 01:42:53;;;;;;;;;;;19.30;99.90;;;;;;5050821;28;19951;-79
2022/10/28 01:45:22;;;;;;;;;;;19.30;99.90;;;;;;5051538;28;19925;-79
2022/10/28 01:47:54;;;;;;;;;;;19.30;99.90;;;;;;5048856;28;20425;-78
2022/10/28 01:50:26;;;;;;;;;;;19.30;99.90;;;;;;5050787;28;20269;-76
2022/10/28 01:52:54;;;;;;;;;;;19.30;99.90;;;;;;5047719;28;19928;-77
2022/10/28 01:55:25;;;;;;;;;;;19.20;99.90;;;;;;5066303;28;19925;-76
2022/10/28 01:57:52;;;;;;;;;;;19.30;99.90;;;;;;5049511;28;20407;-76
2022/10/28 02:00:19;;;;;;;;;;;19.20;99.90;;;;;;5048560;28;19929;-76
2022/10/28 02:02:48;;;;;;;;;;;19.20;99.90;;;;;;5047833;28;19932;-77
2022/10/28 02:05:37;;;;;;;;;;;19.20;99.90;;;;;;5048037;28;19967;-76
2022/10/28 02:08:09;;;;;;;;;;;19.10;99.90;;;;;;5064755;28;20020;-76
2022/10/28 02:10:39;;;;;;;;;;;19.00;99.90;;;;;;5047781;28;19929;-77
2022/10/28 02:13:10;;;;;;;;;;;18.90;99.90;;;;;;5047572;28;20043;-76
2022/10/28 02:15:40;;;;;;;;;;;18.90;99.90;;;;;;5065088;28;20370;-78
2022/10/28 02:18:19;;;;;;;;;;;18.80;99.90;;;;;;5048429;28;19929;-77
2022/10/28 02:20:51;;;;;;;;;;;18.70;99.90;;;;;;5048625;28;19924;-76
2022/10/28 02:23:22;;;;;;;;;;;18.70;99.90;;;;;;5064673;28;20277;-76
2022/10/28 02:25:52;;;;;;;;;;;18.60;99.90;;;;;;5048379;28;19925;-77
2022/10/28 02:28:22;;;;;;;;;;;18.60;99.90;;;;;;5048304;28;20400;-75
2022/10/28 02:30:51;;;;;;;;;;;18.50;99.90;;;;;;5048562;28;19929;-75
2022/10/28 02:33:21;;;;;;;;;;;18.50;99.90;;;;;;5049312;28;20015;-76
2022/10/28 02:35:51;;;;;;;;;;;18.40;99.90;;;;;;5049222;28;20323;-77
2022/10/28 02:38:19;;;;;;;;;;;18.40;99.90;;;;;;5047737;28;20384;-77
2022/10/28 02:40:48;;;;;;;;;;;18.40;99.90;;;;;;5048492;28;19925;-76
2022/10/28 02:43:18;;;;;;;;;;;18.40;99.90;;;;;;5048211;28;19929;-77
2022/10/28 02:45:46;;;;;;;;;;;18.30;99.90;;;;;;5050044;28;19929;-77
2022/10/28 02:48:19;;;;;;;;;;;18.30;99.90;;;;;;5047751;28;20384;-76
2022/10/28 02:50:48;;;;;;;;;;;18.30;99.90;;;;;;5047201;28;20047;-76
2022/10/28 02:53:18;;;;;;;;;;;18.20;99.90;;;;;;5047240;28;19933;-76
2022/10/28 02:55:49;;;;;;;;;;;18.20;99.90;;;;;;5047360;28;20339;-77
2022/10/28 02:58:16;;;;;;;;;;;18.20;99.90;;;;;;5047503;28;20289;-76
2022/10/28 03:00:43;;;;;;;;;;;18.20;99.90;;;;;;5047237;28;19964;-77
2022/10/28 03:03:10;;;;;;;;;;;18.20;99.90;;;;;;5046867;28;19966;-76
2022/10/28 03:05:37;;;;;;;;;;;18.10;99.90;;;;;;5051630;28;19929;-77
2022/10/28 03:08:05;;;;;;;;;;;18.10;99.90;;;;;;5051259;28;20327;-77
2022/10/28 03:10:33;;;;;;;;;;;18.10;99.90;;;;;;5052889;28;19928;-77
2022/10/28 03:13:00;;;;;;;;;;;18.10;99.90;;;;;;5051478;28;20423;-76
2022/10/28 03:15:27;;;;;;;;;;;18.10;99.90;;;;;;5050854;28;19986;-77
2022/10/28 03:17:54;;;;;;;;;;;18.10;99.90;;;;;;5051279;28;19929;-77
2022/10/28 03:20:20;;;;;;;;;;;18.10;99.90;;;;;;5051022;28;19932;-77
2022/10/28 03:22:48;;;;;;;;;;;18.00;99.90;;;;;;5051033;28;20433;-76
2022/10/28 03:25:15;;;;;;;;;;;18.00;99.90;;;;;;5051571;28;19979;-76
2022/10/28 03:27:43;;;;;;;;;;;18.00;99.90;;;;;;5051035;28;19929;-76
2022/10/28 03:30:13;;;;;;;;;;;16.70;99.90;;;;;;5031078;28;19979;-76
2022/10/28 03:32:43;;;;;;;;;;;17.90;99.90;;;;;;5051007;28;19929;-76
2022/10/28 03:35:10;;;;;;;;;;;17.90;99.90;;;;;;5033309;28;19928;-76
2022/10/28 03:37:37;;;;;;;;;;;17.80;99.90;;;;;;5032193;28;20359;-76
2022/10/28 03:40:06;;;;;;;;;;;17.80;99.90;;;;;;5032014;28;19929;-76
2022/10/28 03:42:34;;;;;;;;;;;17.80;99.90;;;;;;5032067;28;19926;-76
2022/10/28 03:45:02;;;;;;;;;;;17.70;99.90;;;;;;5031818;28;19959;-76
2022/10/28 03:47:29;;;;;;;;;;;17.70;99.90;;;;;;5030849;28;19929;-76
2022/10/28 03:49:56;;;;;;;;;;;17.80;99.90;;;;;;5046983;28;19933;-76
2022/10/28 03:52:23;;;;;;;;;;;17.70;99.90;;;;;;5031429;28;20447;-75
2022/10/28 03:54:50;;;;;;;;;;;17.80;99.90;;;;;;5041359;28;19951;-75
2022/10/28 03:57:17;;;;;;;;;;;17.70;99.90;;;;;;5051036;28;20388;-75
2022/10/28 03:59:44;;;;;;;;;;;17.80;99.90;;;;;;5050321;28;20504;-75
2022/10/28 04:02:14;;;;;;;;;;;17.80;99.90;;;;;;5050334;28;20507;-75
2022/10/28 04:04:41;;;;;;;;;;;17.80;99.90;;;;;;5049897;28;19929;-75
2022/10/28 04:07:08;;;;;;;;;;;17.80;99.90;;;;;;5051146;28;19996;-76
2022/10/28 04:09:34;;;;;;;;;;;17.80;99.90;;;;;;5050292;28;19972;-75
2022/10/28 04:12:01;;;;;;;;;;;17.80;99.90;;;;;;5050353;28;19963;-74
2022/10/28 04:14:28;;;;;;;;;;;17.80;99.90;;;;;;5050355;28;19932;-75
2022/10/28 04:16:55;;;;;;;;;;;17.80;99.90;;;;;;5050757;28;19928;-75
2022/10/28 04:19:23;;;;;;;;;;;17.70;99.90;;;;;;5059987;28;19928;-75
2022/10/28 04:21:50;;;;;;;;;;;17.70;99.90;;;;;;5054615;28;19974;-75
2022/10/28 04:24:17;;;;;;;;;;;17.80;99.90;;;;;;5050032;28;19933;-76
2022/10/28 04:26:44;;;;;;;;;;;17.70;99.90;;;;;;5050305;28;19979;-76
2022/10/28 04:29:11;;;;;;;;;;;17.70;99.90;;;;;;5067334;28;19948;-76
2022/10/28 04:31:41;;;;;;;;;;;17.70;99.90;;;;;;5067185;28;19955;-76
2022/10/28 04:34:08;;;;;;;;;;;17.50;99.90;;;;;;5050906;28;19929;-76
2022/10/28 04:36:36;;;;;;;;;;;17.70;99.90;;;;;;5067142;28;20006;-75
2022/10/28 04:39:05;;;;;;;;;;;17.70;99.90;;;;;;5051364;28;19928;-75
2022/10/28 04:41:32;;;;;;;;;;;17.70;99.90;;;;;;5052077;28;19924;-74
2022/10/28 04:43:59;;;;;;;;;;;17.70;99.90;;;;;;5067120;28;19929;-75
2022/10/28 04:46:27;;;;;;;;;;;17.60;99.90;;;;;;5050909;28;19925;-75
2022/10/28 04:48:54;;;;;;;;;;;17.60;99.90;;;;;;5050194;28;19936;-75
2022/10/28 04:51:22;;;;;;;;;;;17.60;99.90;;;;;;5046872;28;19929;-75
2022/10/28 04:53:50;;;;;;;;;;;17.60;99.90;;;;;;5048954;28;19966;-76
2022/10/28 04:56:17;;;;;;;;;;;17.70;99.90;;;;;;5046612;28;20000;-76
2022/10/28 04:58:44;;;;;;;;;;;17.70;99.90;;;;;;5050951;28;20446;-75
2022/10/28 05:01:11;;;;;;;;;;;17.70;99.90;;;;;;5051081;28;19940;-75
2022/10/28 05:03:38;;;;;;;;;;;17.70;99.90;;;;;;5050189;28;20392;-75
2022/10/28 05:06:05;;;;;;;;;;;17.70;99.90;;;;;;5049853;28;19955;-75
2022/10/28 05:08:32;;;;;;;;;;;17.70;99.90;;;;;;5049415;28;20384;-75
2022/10/28 05:11:00;;;;;;;;;;;17.70;99.90;;;;;;5048667;28;19924;-76
2022/10/28 05:13:27;;;;;;;;;;;17.70;99.90;;;;;;5048034;28;19955;-75
2022/10/28 05:15:54;;;;;;;;;;;17.70;99.90;;;;;;5052460;28;19932;-75
2022/10/28 05:18:21;;;;;;;;;;;17.70;99.90;;;;;;5047972;28;20466;-75
2022/10/28 05:20:53;;;;;;;;;;;17.80;99.90;;;;;;5046091;28;19959;-75
2022/10/28 05:23:20;;;;;;;;;;;17.80;99.90;;;;;;5047538;28;19935;-75
2022/10/28 05:25:47;;;;;;;;;;;17.80;99.90;;;;;;5047148;28;19979;-75
2022/10/28 05:28:15;;;;;;;;;;;17.80;99.90;;;;;;5047055;28;19928;-75
2022/10/28 05:30:43;;;;;;;;;;;17.80;99.90;;;;;;5047530;28;19941;-75
2022/10/28 05:33:10;;;;;;;;;;;17.80;99.90;;;;;;5045533;28;19930;-75
2022/10/28 05:35:37;;;;;;;;;;;17.80;99.90;;;;;;5048277;28;19925;-76
2022/10/28 05:38:04;;;;;;;;;;;17.80;99.90;;;;;;5049209;28;19928;-75
2022/10/28 05:40:31;;;;;;;;;;;17.80;99.90;;;;;;5044591;28;20422;-75
2022/10/28 05:42:58;;;;;;;;;;;17.90;99.90;;;;;;5052174;28;19929;-75
2022/10/28 05:45:26;;;;;;;;;;;17.90;99.90;;;;;;5071345;28;19928;-75
2022/10/28 05:47:54;;;;;;;;;;;17.90;99.90;;;;;;5043069;28;19940;-77
2022/10/28 05:50:21;;;;;;;;;;;17.90;99.90;;;;;;5044825;28;20364;-74
2022/10/28 05:52:50;;;;;;;;;;;18.00;99.90;;;;;;5041095;28;19989;-75
2022/10/28 05:55:18;;;;;;;;;;;18.00;99.90;;;;;;5043034;28;19929;-77
2022/10/28 05:57:46;;;;;;;;;;;17.90;99.90;;;;;;5046084;28;19929;-77
2022/10/28 06:00:13;;;;;;;;;;;17.90;99.90;;;;;;5048585;28;19925;-76
2022/10/28 06:02:42;;;;;;;;;;;17.80;99.90;;;;;;5048279;28;20341;-77
2022/10/28 06:05:09;;;;;;;;;;;17.90;99.90;;;;;;5038676;28;19929;-77
2022/10/28 06:07:48;;;;;;;;;;;17.90;99.90;;;;;;5046305;28;19928;-77
2022/10/28 06:10:16;;;;;;;;;;;17.90;99.90;;;;;;5048665;28;19933;-78
2022/10/28 06:12:42;;;;;;;;;;;17.90;99.90;;;;;;5049682;28;19939;-80
2022/10/28 06:15:10;;;;;;;;;;;17.90;99.90;;;;;;5052426;28;19924;-80
2022/10/28 06:17:37;;;;;;;;;;;17.90;99.90;;;;;;5052732;28;19951;-81
2022/10/28 06:20:06;;;;;;;;;;;17.90;99.90;;;;;;5052745;28;19924;-82
2022/10/28 06:22:33;;;;;;;;;;;18.00;99.90;;;;;;5062335;28;19943;-80
2022/10/28 06:25:00;;;;;;;;;;;18.00;99.90;;;;;;5056447;28;19982;-80
2022/10/28 06:27:27;;;;;;;;;;;18.00;99.90;;;;;;5057847;28;19982;-82
2022/10/28 06:29:56;;;;;;;;;;;18.00;99.90;;;;;;5055732;28;19943;-83
2022/10/28 06:32:24;;;;;;;;;;;18.00;99.90;;;;;;5057310;28;19929;-80
2022/10/28 06:34:51;;;;;;;;;;;18.00;99.90;;;;;;5039510;28;20070;-78
2022/10/28 06:37:20;;;;;;;;;;;18.00;99.90;;;;;;5055535;28;19939;-79
2022/10/28 06:39:51;;;;;;;;;;;18.10;99.90;;;;;;5055097;28;19929;-80
2022/10/28 06:42:21;;;;;;;;;;;18.10;99.90;;;;;;5050426;28;20062;-78
2022/10/28 06:44:49;;;;;;;;;;;18.10;99.90;;;;;;5046261;28;19933;-77
2022/10/28 06:47:16;;;;;;;;;;;18.10;99.90;;;;;;5054228;28;19925;-77
2022/10/28 06:49:43;;;;;;;;;;;18.10;99.90;;;;;;5051199;28;19935;-77
2022/10/28 06:52:10;;;;;;;;;;;18.10;99.90;;;;;;5051806;28;19931;-76
2022/10/28 06:54:40;;;;;;;;;;;18.20;99.90;;;;;;5054624;28;20436;-77
2022/10/28 06:57:07;;;;;;;;;;;18.20;99.90;;;;;;5053702;28;19928;-79
2022/10/28 06:59:34;;;;;;;;;;;18.10;99.90;;;;;;5052936;28;19936;-77
2022/10/28 07:02:01;;;;;;;;;;;18.40;99.90;;;;;;5050411;28;20506;-78
2022/10/28 07:04:28;;;;;;;;;;;18.40;99.90;;;;;;5051382;28;19929;-78
2022/10/28 07:06:56;;;;;;;;;;;18.50;99.90;;;;;;5052138;28;20036;-78
2022/10/28 07:09:23;;;;;;;;;;;18.60;99.90;;;;;;5049283;28;19925;-78
2022/10/28 07:11:51;;;;;;;;;;;18.80;99.90;;;;;;5049857;28;19936;-78
2022/10/28 07:14:18;;;;;;;;;;;19.00;99.90;;;;;;5051098;28;19933;-78
2022/10/28 07:16:45;;;;;;;;;;;20.70;99.90;;;;;;5049765;28;20434;-77
2022/10/28 07:19:12;;;;;;;;;;;19.00;99.90;;;;;;5049662;28;20407;-78
2022/10/28 07:21:39;;;;;;;;;;;19.50;99.90;;;;;;5049500;28;20000;-78
2022/10/28 07:24:06;;;;;;;;;;;19.50;99.90;;;;;;5050474;28;20036;-78
2022/10/28 07:26:33;;;;;;;;;;;19.60;99.90;;;;;;5052744;28;19924;-78
2022/10/28 07:29:01;;;;;;;;;;;19.70;99.90;;;;;;5050442;28;19935;-78
2022/10/28 07:31:30;;;;;;;;;;;19.80;99.90;;;;;;5051408;28;20457;-78
2022/10/28 07:33:57;;;;;;;;;;;19.90;99.90;;;;;;5052011;28;19932;-78
2022/10/28 07:36:24;;;;;;;;;;;19.90;99.90;;;;;;5052810;28;19925;-78
2022/10/28 07:38:51;;;;;;;;;;;19.90;99.90;;;;;;5044181;28;19979;-77
2022/10/28 07:41:18;;;;;;;;;;;20.00;99.90;;;;;;5051902;28;19928;-77
2022/10/28 07:43:45;;;;;;;;;;;20.00;99.90;;;;;;5046343;28;19932;-78
2022/10/28 07:46:13;;;;;;;;;;;20.10;99.90;;;;;;5051318;28;19991;-78
2022/10/28 07:48:40;;;;;;;;;;;20.20;99.90;;;;;;5050736;28;19929;-78
2022/10/28 07:51:08;;;;;;;;;;;20.40;99.90;;;;;;5055287;28;20474;-78
2022/10/28 07:53:35;;;;;;;;;;;20.40;99.90;;;;;;5065960;28;20307;-78
2022/10/28 07:56:03;;;;;;;;;;;20.40;99.90;;;;;;5066215;28;19925;-78
2022/10/28 07:58:30;;;;;;;;;;;20.60;99.90;;;;;;5051025;28;19982;-78
2022/10/28 08:00:56;;;;;;;;;;;20.60;99.90;;;;;;5049753;28;19971;-78
2022/10/28 08:03:25;;;;;;;;;;;20.70;99.90;;;;;;5050048;28;19932;-78
2022/10/28 08:05:59;;;;;;;;;;;20.70;99.90;;;;;;5050699;28;19925;-78
2022/10/28 08:08:26;;;;;;;;;;;20.70;99.90;;;;;;5057500;28;19932;-77
2022/10/28 08:10:56;;;;;;;;;;;20.70;99.90;;;;;;5051247;28;19929;-78
2022/10/28 08:13:22;;;;;;;;;;;20.70;99.90;;;;;;5050395;28;19967;-78
2022/10/28 08:15:53;;;;;;;;;;;20.70;99.90;;;;;;5050840;28;20599;-78
2022/10/28 08:18:20;;;;;;;;;;;20.70;99.90;;;;;;5051185;28;19928;-78
2022/10/28 08:20:48;;;;;;;;;;;20.70;99.90;;;;;;5050697;28;19953;-78
2022/10/28 08:23:15;;;;;;;;;;;20.80;99.90;;;;;;5050679;28;19929;-78
2022/10/28 08:25:49;;;;;;;;;;;21.00;99.90;;;;;;5050833;28;19964;-78
2022/10/28 08:28:16;;;;;;;;;;;20.90;99.90;;;;;;5051400;28;20019;-78
2022/10/28 08:30:43;;;;;;;;;;;20.90;99.90;;;;;;5052526;28;19990;-77
2022/10/28 08:33:09;;;;;;;;;;;21.00;99.90;;;;;;5045652;28;19932;-77
2022/10/28 08:35:36;;;;;;;;;;;21.00;99.90;;;;;;5049657;28;19937;-77
2022/10/28 08:38:05;;;;;;;;;;;20.80;99.90;;;;;;5051245;28;20015;-77
2022/10/28 08:40:35;;;;;;;;;;;21.10;99.90;;;;;;5049311;28;19982;-78
2022/10/28 08:43:05;;;;;;;;;;;21.10;99.90;;;;;;5048067;28;19925;-78
2022/10/28 08:45:40;;;;;;;;;;;21.20;99.90;;;;;;5054754;28;19928;-78
2022/10/28 08:48:13;;;;;;;;;;;21.30;99.90;;;;;;5050831;28;20493;-81
2022/10/28 08:50:44;;;;;;;;;;;21.30;99.90;;;;;;5057011;28;19936;-81
2022/10/28 08:53:15;;;;;;;;;;;21.40;99.90;;;;;;5056038;28;19929;-80
2022/10/28 08:55:44;;;;;;;;;;;21.30;99.90;;;;;;5057064;28;20019;-78
2022/10/28 08:58:12;;;;;;;;;;;21.40;99.90;;;;;;5058262;28;19951;-81
2022/10/28 09:00:40;;;;;;;;;;;21.40;99.90;;;;;;5056886;28;19935;-80
2022/10/28 09:03:13;;;;;;;;;;;21.50;99.90;;;;;;5055782;28;19924;-79
2022/10/28 09:05:41;;;;;;;;;;;21.50;99.90;;;;;;5056430;28;19928;-80
2022/10/28 09:08:17;;;;;;;;;;;21.60;99.90;;;;;;5057429;28;20051;-79
2022/10/28 09:11:02;;;;;;;;;;;21.70;99.90;;;;;;5057015;28;19929;-80
2022/10/28 09:13:36;;;;;;;;;;;21.70;99.90;;;;;;5043190;28;19998;-80
2022/10/28 09:16:06;;;;;;;;;;;21.80;99.90;;;;;;5056912;28;19940;-80
2022/10/28 09:18:42;;;;;;;;;;;21.90;99.90;;;;;;5057209;28;19944;-78
2022/10/28 09:21:13;;;;;;;;;;;21.90;99.90;;;;;;5057172;28;19933;-79
2022/10/28 09:23:44;;;;;;;;;;;22.00;99.90;;;;;;5055623;28;19935;-79
2022/10/28 09:26:16;;;;;;;;;;;22.10;99.90;;;;;;5057781;28;20470;-82
2022/10/28 09:28:51;;;;;;;;;;;22.20;99.90;;;;;;5058197;28;19971;-80
2022/10/28 09:31:24;;;;;;;;;;;22.40;99.90;;;;;;5056492;28;19932;-80
2022/10/28 09:33:56;;;;;;;;;;;22.50;99.90;;;;;;5055614;28;19925;-78
2022/10/28 09:36:25;;;;;;;;;;;22.60;99.90;;;;;;5056796;28;19929;-79
2022/10/28 09:38:52;;;;;;;;;;;22.70;99.90;;;;;;5056501;28;19925;-79
2022/10/28 09:41:20;;;;;;;;;;;22.80;99.90;;;;;;5057165;28;19929;-80
2022/10/28 09:43:52;;;;;;;;;;;22.90;99.90;;;;;;5058167;28;19924;-81
2022/10/28 09:46:19;;;;;;;;;;;23.00;99.90;;;;;;5057242;28;19935;-78
2022/10/28 09:48:47;;;;;;;;;;;23.00;99.90;;;;;;5056647;28;19924;-80
2022/10/28 09:51:21;;;;;;;;;;;23.00;99.90;;;;;;5055046;28;19931;-80
2022/10/28 09:53:50;;;;;;;;;;;23.00;99.90;;;;;;5055096;28;19925;-80
2022/10/28 09:56:17;;;;;;;;;;;23.10;99.90;;;;;;5057763;28;19940;-80
2022/10/28 09:58:45;;;;;;;;;;;23.20;99.90;;;;;;5055868;28;19947;-81
2022/10/28 10:01:15;;;;;;;;;;;23.30;99.90;;;;;;5053809;28;20019;-81
2022/10/28 10:03:42;;;;;;;;;;;23.50;99.90;;;;;;5054387;28;19960;-80
2022/10/28 10:06:12;;;;;;;;;;;23.50;99.90;;;;;;5054689;28;19979;-80
2022/10/28 10:08:39;;;;;;;;;;;23.60;99.90;;;;;;5055534;28;19955;-81
2022/10/28 10:11:11;;;;;;;;;;;23.70;99.90;;;;;;5051104;28;19932;-78
2022/10/28 10:13:41;;;;;;;;;;;23.70;99.90;;;;;;5052622;28;20278;-77
2022/10/28 10:16:13;;;;;;;;;;;23.80;99.90;;;;;;5050725;28;19925;-78
2022/10/28 10:18:45;;;;;;;;;;;23.80;99.90;;;;;;5054331;28;20343;-78
2022/10/28 10:21:13;;;;;;;;;;;23.80;99.90;;;;;;5069254;28;19972;-78
2022/10/28 10:23:40;;;;;;;;;;;23.90;99.90;;;;;;5051467;28;19993;-78
2022/10/28 10:26:08;;;;;;;;;;;23.90;99.90;;;;;;5053317;28;19929;-81
2022/10/28 10:28:36;;;;;;;;;;;23.90;99.90;;;;;;5051502;28;19994;-78
2022/10/28 10:31:05;;;;;;;;;;;23.90;99.90;;;;;;5051550;28;19936;-79
2022/10/28 10:33:34;;;;;;;;;;;23.90;99.90;;;;;;5064107;28;20003;-77
2022/10/28 10:36:04;;;;;;;;;;;23.90;99.90;;;;;;5051846;28;20228;-79
2022/10/28 10:38:32;;;;;;;;;;;24.10;99.90;;;;;;5050074;28;19928;-79
2022/10/28 10:40:59;;;;;;;;;;;24.20;99.90;;;;;;5049004;28;19925;-79
2022/10/28 10:43:30;;;;;;;;;;;24.40;99.90;;;;;;5046984;28;19929;-78
2022/10/28 10:46:02;;;;;;;;;;;24.60;99.90;;;;;;5050158;28;19935;-76
2022/10/28 10:48:31;;;;;;;;;;;24.80;99.90;;;;;;5054257;28;20459;-77
2022/10/28 10:51:04;;;;;;;;;;;24.90;99.90;;;;;;5054264;28;19964;-78
2022/10/28 10:53:33;;;;;;;;;;;25.10;99.90;;;;;;5053233;28;20306;-77
2022/10/28 10:56:01;;;;;;;;;;;25.20;99.90;;;;;;5053805;28;19931;-76
2022/10/28 10:58:30;;;;;;;;;;;25.30;99.90;;;;;;5054501;28;19959;-78
2022/10/28 11:00:57;;;;;;;;;;;25.30;99.90;;;;;;5054579;28;19936;-79
2022/10/28 11:03:27;;;;;;;;;;;25.30;99.90;;;;;;5054362;28;19930;-79
2022/10/28 11:05:55;;;;;;;;;;;25.50;99.90;;;;;;5053935;28;19928;-77
2022/10/28 11:08:35;;;;;;;;;;;25.70;99.90;;;;;;5055383;28;19932;-79
2022/10/28 11:11:11;;;;;;;;;;;25.70;99.90;;;;;;5056649;28;19928;-79
2022/10/28 11:13:39;;;;;;;;;;;25.80;99.90;;;;;;5053738;28;19960;-78
2022/10/28 11:16:07;;;;;;;;;;;25.70;99.90;;;;;;5055507;28;20668;-78
2022/10/28 11:18:41;;;;;;;;;;;25.60;99.90;;;;;;5055324;28;19933;-78
2022/10/28 11:21:14;;;;;;;;;;;25.60;99.90;;;;;;5054275;28;19928;-77
2022/10/28 11:23:47;;;;;;;;;;;25.60;99.90;;;;;;5054529;28;19928;-78
2022/10/28 11:26:15;;;;;;;;;;;25.70;99.90;;;;;;5057159;28;19935;-78
2022/10/28 11:28:50;;;;;;;;;;;25.70;99.90;;;;;;5057011;28;19928;-80
2022/10/28 11:31:35;;;;;;;;;;;25.70;99.90;;;;;;5057625;28;19924;-77
2022/10/28 11:34:18;;;;;;;;;;;25.80;99.90;;;;;;5047975;28;19925;-79
2022/10/28 11:36:48;;;;;;;;;;;25.80;99.90;;;;;;5058125;28;20058;-79
2022/10/28 11:39:21;;;;;;;;;;;25.80;99.90;;;;;;5058884;28;19929;-78
2022/10/28 11:41:53;;;;;;;;;;;25.90;99.90;;;;;;5059516;28;20297;-79
2022/10/28 11:44:26;;;;;;;;;;;25.90;99.90;;;;;;5059516;28;19928;-78
2022/10/28 11:46:56;;;;;;;;;;;25.90;99.90;;;;;;5058998;28;19929;-79
2022/10/28 11:49:36;;;;;;;;;;;26.00;99.90;;;;;;5059342;28;19929;-79
2022/10/28 11:52:10;;;;;;;;;;;26.00;99.90;;;;;;5057219;28;19932;-79
2022/10/28 11:54:45;;;;;;;;;;;26.00;99.90;;;;;;5056955;28;19933;-77
2022/10/28 11:57:14;;;;;;;;;;;25.90;99.90;;;;;;5056438;28;19924;-78
2022/10/28 12:00:03;;;;;;;;;;;25.90;99.90;;;;;;5056926;28;20386;-79
2022/10/28 12:02:38;;;;;;;;;;;25.90;99.90;;;;;;5059241;28;19947;-78
2022/10/28 12:05:10;;;;;;;;;;;25.90;99.90;;;;;;5059070;28;20015;-76
2022/10/28 12:07:44;;;;;;;;;;;26.10;99.90;;;;;;5058657;28;19929;-79
2022/10/28 12:10:21;;;;;;;;;;;26.10;99.90;;;;;;5056205;28;20004;-77
2022/10/28 12:12:52;;;;;;;;;;;26.20;99.90;;;;;;5056085;28;19936;-77
2022/10/28 12:15:21;;;;;;;;;;;26.20;99.90;;;;;;5056411;28;19941;-78
2022/10/28 12:17:50;;;;;;;;;;;26.20;99.90;;;;;;5056949;28;20362;-78
2022/10/28 12:20:21;;;;;;;;;;;26.20;99.90;;;;;;5057634;28;19951;-78
2022/10/28 12:26:25;;;;;;;;;;;26.10;99.90;;;;;;5057895;28;19940;-77
2022/10/28 12:28:55;;;;;;;;;;;26.10;99.90;;;;;;5057085;28;19943;-78
2022/10/28 12:31:22;;;;;;;;;;;26.00;99.90;;;;;;5057881;28;19936;-78
2022/10/28 12:33:51;;;;;;;;;;;26.00;99.90;;;;;;5056140;28;19948;-77
2022/10/28 12:36:21;;;;;;;;;;;25.90;99.90;;;;;;5058043;28;19925;-79
2022/10/28 12:38:53;;;;;;;;;;;26.00;99.90;;;;;;5050729;28;19928;-79
2022/10/28 12:41:23;;;;;;;;;;;26.00;99.90;;;;;;5053985;28;20035;-78
2022/10/28 12:43:57;;;;;;;;;;;26.10;99.90;;;;;;5055241;28;20411;-78
2022/10/28 12:46:30;;;;;;;;;;;26.10;99.90;;;;;;5051966;28;20002;-77
2022/10/28 12:49:00;;;;;;;;;;;26.10;99.90;;;;;;5050493;28;20556;-78
2022/10/28 12:51:30;;;;;;;;;;;26.00;99.90;;;;;;5053459;28;19950;-76
2022/10/28 12:54:00;;;;;;;;;;;26.10;99.90;;;;;;5049167;28;19925;-77
2022/10/28 12:56:32;;;;;;;;;;;26.00;99.90;;;;;;5049692;28;20325;-77
2022/10/28 12:59:03;;;;;;;;;;;26.00;99.90;;;;;;5049545;28;20407;-77
2022/10/28 13:01:31;;;;;;;;;;;26.00;99.90;;;;;;5050808;28;20412;-77
2022/10/28 13:03:58;;;;;;;;;;;26.00;99.90;;;;;;5049619;28;19932;-77
2022/10/28 13:06:34;;;;;;;;;;;26.00;99.90;;;;;;5048310;28;19929;-77
2022/10/28 13:09:16;;;;;;;;;;;26.00;99.90;;;;;;5049016;28;19956;-77
2022/10/28 13:12:07;;;;;;;;;;;25.80;99.90;;;;;;5046239;28;19933;-76
2022/10/28 13:14:45;;;;;;;;;;;25.90;99.90;;;;;;4976767;28;19930;-76
2022/10/28 13:17:18;;;;;;;;;;;25.80;99.90;;;;;;5049210;28;20308;-75
2022/10/28 13:20:11;;;;;;;;;;;25.80;99.90;;;;;;5046953;28;19940;-78
2022/10/28 13:22:52;;;;;;;;;;;25.70;99.90;;;;;;5043478;28;19940;-77
2022/10/28 13:25:29;;;;;;;;;;;25.70;99.90;;;;;;5048483;28;20715;-77
2022/10/28 13:27:56;;;;;;;;;;;25.70;99.90;;;;;;5050534;28;19988;-77
2022/10/28 13:30:25;;;;;;;;;;;25.70;99.90;;;;;;5041270;28;19925;-76
2022/10/28 13:33:00;;;;;;;;;;;25.70;99.90;;;;;;5048208;28;19990;-77
2022/10/28 13:35:28;;;;;;;;;;;25.80;99.90;;;;;;5049771;28;19967;-77
2022/10/28 13:37:55;;;;;;;;;;;25.70;99.90;;;;;;5048914;28;19936;-77
2022/10/28 13:40:43;;;;;;;;;;;25.70;99.90;;;;;;5039856;28;19935;-77
2022/10/28 13:43:19;;;;;;;;;;;25.70;99.90;;;;;;5049525;28;20364;-76
2022/10/28 13:45:51;;;;;;;;;;;25.70;99.90;;;;;;5049869;28;19929;-77
2022/10/28 13:48:45;;;;;;;;;;;25.80;99.90;;;;;;5049010;28;20430;-77
2022/10/28 13:51:44;;;;;;;;;;;25.80;99.90;;;;;;5020089;28;19948;-77
2022/10/28 13:54:23;;;;;;;;;;;25.70;99.90;;;;;;5048738;28;20511;-77
2022/10/28 13:56:51;;;;;;;;;;;25.70;99.90;;;;;;5048975;28;19932;-77
2022/10/28 13:59:28;;;;;;;;;;;25.50;99.90;;;;;;5048956;28;19925;-77
2022/10/28 14:02:03;;;;;;;;;;;25.40;99.90;;;;;;5048590;28;19975;-76
2022/10/28 14:04:33;;;;;;;;;;;25.20;99.90;;;;;;5048990;28;20027;-77
2022/10/28 14:07:07;;;;;;;;;;;25.20;99.90;;;;;;5048778;28;19932;-77
2022/10/28 14:09:35;;;;;;;;;;;25.00;99.90;;;;;;5049058;28;19936;-77
2022/10/28 14:12:17;;;;;;;;;;;24.90;99.90;;;;;;5048362;28;19974;-77
2022/10/28 14:14:57;;;;;;;;;;;24.90;99.90;;;;;;5049254;28;19936;-77
2022/10/28 14:17:26;;;;;;;;;;;24.90;99.90;;;;;;5049437;28;19978;-77
2022/10/28 14:19:53;;;;;;;;;;;24.90;99.90;;;;;;5049393;28;19928;-77
2022/10/28 14:22:31;;;;;;;;;;;24.70;99.90;;;;;;5048581;28;20064;-77
2022/10/28 14:25:00;;;;;;;;;;;24.70;99.90;;;;;;5049800;28;20356;-77
2022/10/28 14:27:28;;;;;;;;;;;24.60;99.90;;;;;;5049455;28;20039;-76
2022/10/28 14:30:17;;;;;;;;;;;24.50;99.90;;;;;;5050072;28;19986;-77
2022/10/28 14:32:51;;;;;;;;;;;24.30;99.90;;;;;;5048409;28;19964;-77
2022/10/28 14:35:20;;;;;;;;;;;24.30;99.90;;;;;;5047664;28;19929;-76
2022/10/28 14:38:07;;;;;;;;;;;24.20;99.90;;;;;;5048998;28;19924;-77